Time;durP1;ratioP1;P1;durP2;ratioP2;P2;SDS_P1;SDS_P2;PMS_P1;PMS_P2;Temp;Humidity;BMP_temperature;BMP_pressure;BME280_temperature;BME280_humidity;BME280_pressure;Samples;Min_cycle;Max_cycle;Signal;HPM_P1;HPM_P2
2022/01/11 00:01:03;;;;;;;58.53;23.23;;;;;;;-0.78;97.73;102990.59;5023561;28;20028;-72
2022/01/11 00:03:28;;;;;;;55.53;24.48;;;;;;;-0.76;97.91;102994.06;5033620;28;20036;-72
2022/01/11 00:08:28;;;;;;;47.08;24.17;;;;;;;-0.71;97.49;103011.50;5033922;28;20543;-72
2022/01/11 00:11:02;;;;;;;45.00;24.95;;;;;;;-0.68;97.87;103020.22;5030460;28;20703;-72
2022/01/11 00:13:28;;;;;;;49.42;24.85;;;;;;;-0.63;97.87;103021.13;5031079;28;20521;-73
2022/01/11 00:15:53;;;;;;;43.65;24.35;;;;;;;-0.59;97.79;103024.59;5033195;28;20049;-72
2022/01/11 00:18:18;;;;;;;59.50;25.45;;;;;;;-0.58;97.80;103029.84;5023830;28;20034;-73
2022/01/11 00:20:43;;;;;;;46.78;25.60;;;;;;;-0.58;97.82;103023.75;5033101;28;20022;-73
2022/01/11 00:25:40;;;;;;;53.30;24.25;;;;;;;-0.60;98.04;103020.25;5029295;28;20050;-72
2022/01/11 00:28:07;;;;;;;51.65;24.65;;;;;;;-0.61;98.16;103014.16;5033520;28;20391;-72
2022/01/11 00:30:37;;;;;;;54.65;26.55;;;;;;;-0.58;97.82;103018.53;5032969;28;20171;-72
2022/01/11 00:33:07;;;;;;;50.85;24.67;;;;;;;-0.59;98.30;103017.63;5031884;28;20030;-72
2022/01/11 00:35:42;;;;;;;55.47;27.08;;;;;;;-0.58;97.85;103019.41;5032908;28;20068;-72
2022/01/11 00:38:09;;;;;;;53.35;26.48;;;;;;;-0.55;98.08;103015.91;5029668;28;20121;-72
2022/01/11 00:40:35;;;;;;;57.75;27.20;;;;;;;-0.56;98.05;103020.28;5033016;28;20025;-73
2022/01/11 00:43:01;;;;;;;50.50;28.00;;;;;;;-0.56;98.09;103016.78;5032949;28;20353;-72
2022/01/11 00:45:27;;;;;;;57.78;27.00;;;;;;;-0.54;98.28;103014.19;5032944;28;20021;-72
2022/01/11 00:47:56;;;;;;;49.20;26.65;;;;;;;-0.53;98.14;103018.53;5031492;28;20041;-73
2022/01/11 00:50:22;;;;;;;50.25;26.48;;;;;;;-0.54;98.23;103004.63;5033194;28;20132;-73
2022/01/11 00:52:47;;;;;;;50.90;26.10;;;;;;;-0.54;98.11;103009.84;5032777;28;20113;-73
2022/01/11 00:55:14;;;;;;;60.03;28.15;;;;;;;-0.52;98.26;103009.84;5024421;28;20395;-73
2022/01/11 00:57:39;;;;;;;55.45;27.30;;;;;;;-0.53;98.24;103005.47;5028288;28;20382;-73
2022/01/11 01:00:08;;;;;;;49.75;27.38;;;;;;;-0.52;98.12;103004.63;5031255;28;20557;-73
2022/01/11 01:02:34;;;;;;;53.88;27.83;;;;;;;-0.50;98.14;103005.50;5032709;28;20045;-72
2022/01/11 01:05:00;;;;;;;61.47;29.65;;;;;;;-0.51;98.35;103011.59;5029826;28;20037;-72
2022/01/11 01:07:25;;;;;;;54.25;27.60;;;;;;;-0.49;98.48;103007.25;5018793;28;20029;-73
2022/01/11 01:10:19;;;;;;;57.33;27.33;;;;;;;-0.48;98.21;103015.09;5027777;28;20390;-73
2022/01/11 01:12:39;;;;;;;60.63;28.55;;;;;;;-0.49;98.13;103022.91;5030025;28;20044;-72
2022/01/11 01:15:05;;;;;;;61.17;29.35;;;;;;;-0.49;98.16;103017.69;5030232;28;20041;-73
2022/01/11 01:17:30;;;;;;;55.90;27.77;;;;;;;-0.49;98.32;103023.78;5028301;28;20391;-72
2022/01/11 01:19:55;;;;;;;60.00;28.80;;;;;;;-0.48;97.96;103027.25;5030732;28;20109;-73
2022/01/11 01:22:21;;;;;;;59.97;29.25;;;;;;;-0.48;98.12;103024.66;5027701;28;20083;-73
2022/01/11 01:24:47;;;;;;;63.72;29.88;;;;;;;-0.47;98.43;103021.19;5030671;28;20047;-72
2022/01/11 01:27:13;;;;;;;62.78;29.20;;;;;;;-0.49;98.14;103013.34;5032221;28;20428;-73
2022/01/11 01:29:40;;;;;;;62.60;29.35;;;;;;;-0.50;98.14;103021.16;5026022;28;20060;-72
2022/01/11 01:32:07;;;;;;;63.92;29.73;;;;;;;-0.51;98.19;103017.69;5032169;28;20037;-73
2022/01/11 01:34:32;;;;;;;64.03;30.23;;;;;;;-0.54;98.29;103012.44;5017937;28;20034;-73
2022/01/11 01:36:58;;;;;;;67.13;30.88;;;;;;;-0.52;98.26;103015.06;5028373;28;20037;-73
2022/01/11 01:39:25;;;;;;;65.18;29.42;;;;;;;-0.51;97.97;103011.59;5032039;28;20541;-73
2022/01/11 01:41:50;;;;;;;63.38;30.42;;;;;;;-0.52;97.79;103021.16;5026043;28;20025;-72
2022/01/11 01:44:15;;;;;;;68.32;30.02;;;;;;;-0.51;98.21;103025.53;5027867;28;20029;-72
2022/01/11 01:46:41;;;;;;;67.75;30.65;;;;;;;-0.53;97.80;103024.66;5029948;28;20060;-73
2022/01/11 01:49:08;;;;;;;62.40;28.27;;;;;;;-0.52;97.84;103017.69;5031583;28;20065;-72
2022/01/11 01:51:33;;;;;;;65.57;29.13;;;;;;;-0.53;98.18;103018.53;5016760;28;20045;-72
2022/01/11 01:53:58;;;;;;;64.50;29.40;;;;;;;-0.52;98.16;103022.91;5031605;28;20018;-73
2022/01/11 01:56:26;;;;;;;60.80;28.70;;;;;;;-0.51;97.90;103014.22;5030480;28;20025;-72
2022/01/11 01:58:51;;;;;;;60.38;28.58;;;;;;;-0.50;97.80;103023.78;5021796;28;20029;-73
2022/01/11 02:01:18;;;;;;;56.20;28.05;;;;;;;-0.51;97.91;103022.03;5030348;28;20249;-73
2022/01/11 02:03:44;;;;;;;62.47;28.88;;;;;;;-0.52;97.63;103022.91;5031891;28;20112;-73
2022/01/11 02:06:16;;;;;;;59.50;28.35;;;;;;;-0.52;97.86;103033.34;5031399;28;20398;-73
2022/01/11 02:08:44;;;;;;;56.70;28.05;;;;;;;-0.52;97.40;103025.50;5018648;28;20080;-73
2022/01/11 02:11:10;;;;;;;56.60;27.95;;;;;;;-0.51;97.72;103035.97;5030277;28;20029;-73
2022/01/11 02:13:37;;;;;;;60.75;29.20;;;;;;;-0.48;97.53;103042.91;5046354;28;20383;-73
2022/01/11 02:16:04;;;;;;;58.08;27.95;;;;;;;-0.51;97.35;103038.56;5031192;28;20021;-73
2022/01/11 02:18:29;;;;;;;56.42;26.63;;;;;;;-0.52;97.33;103038.56;5024139;28;20133;-73
2022/01/11 02:20:58;;;;;;;58.17;27.30;;;;;;;-0.52;97.41;103046.41;5031084;28;20479;-73
2022/01/11 02:23:25;;;;;;;62.72;27.98;;;;;;;-0.55;97.61;103057.69;5023411;28;20080;-72
2022/01/11 02:25:50;;;;;;;54.97;25.98;;;;;;;-0.56;97.15;103058.56;5028117;28;20463;-73
2022/01/11 02:28:22;;;;;;;50.03;25.63;;;;;;;-0.57;97.67;103059.41;5024161;28;20120;-72
2022/01/11 02:30:47;;;;;;;52.03;26.05;;;;;;;-0.61;97.50;103061.13;5030795;28;20033;-74
2022/01/11 02:33:31;;;;;;;56.70;26.08;;;;;;;-0.63;97.52;103065.47;5030803;28;20022;-72
2022/01/11 02:35:56;;;;;;;55.83;26.50;;;;;;;-0.65;97.50;103051.56;5018618;28;20040;-72
2022/01/11 02:38:21;;;;;;;55.15;26.50;;;;;;;-0.65;97.32;103054.16;5030814;28;20033;-72
2022/01/11 02:40:47;;;;;;;52.72;25.88;;;;;;;-0.63;97.42;103059.41;5030547;28;20030;-76
2022/01/11 02:43:12;;;;;;;54.17;25.33;;;;;;;-0.66;97.43;103068.06;5029549;28;20471;-74
2022/01/11 02:45:37;;;;;;;51.92;24.80;;;;;;;-0.67;97.36;103076.75;5019993;28;20017;-74
2022/01/11 02:48:03;;;;;;;54.38;27.00;;;;;;;-0.67;97.63;103079.34;5030523;28;20080;-74
2022/01/11 02:50:28;;;;;;;55.95;26.20;;;;;;;-0.67;97.69;103076.75;5030782;28;20069;-72
2022/01/11 02:52:54;;;;;;;52.65;25.63;;;;;;;-0.67;97.57;103081.97;5021155;28;20072;-72
2022/01/11 02:55:19;;;;;;;51.53;26.23;;;;;;;-0.67;97.25;103087.19;5029123;28;20031;-73
2022/01/11 02:57:44;;;;;;;57.47;27.35;;;;;;;-0.68;97.36;103084.56;5030571;28;20111;-73
2022/01/11 03:00:17;;;;;;;52.78;26.40;;;;;;;-0.67;97.48;103088.94;5026779;28;20112;-73
2022/01/11 03:02:43;;;;;;;59.10;27.45;;;;;;;-0.67;97.32;103087.19;5016441;28;20479;-73
2022/01/11 03:05:10;;;;;;;58.80;27.77;;;;;;;-0.68;97.52;103088.06;5027548;28;20045;-73
2022/01/11 03:07:36;;;;;;;56.92;27.50;;;;;;;-0.67;97.28;103088.94;5028432;28;20025;-73
2022/01/11 03:10:13;;;;;;;52.65;26.27;;;;;;;-0.67;97.25;103086.31;5028585;28;20029;-73
2022/01/11 03:12:40;;;;;;;58.47;28.23;;;;;;;-0.66;97.55;103090.69;5021522;28;20032;-73
2022/01/11 03:15:06;;;;;;;59.53;27.15;;;;;;;-0.67;97.19;103088.94;5030622;28;20337;-73
2022/01/11 03:17:31;;;;;;;62.28;28.55;;;;;;;-0.67;97.17;103089.81;5030354;28;20036;-72
2022/01/11 03:19:57;;;;;;;51.97;27.92;;;;;;;-0.70;97.45;103084.59;5017354;28;20435;-73
2022/01/11 03:22:22;;;;;;;53.83;27.35;;;;;;;-0.73;97.25;103084.56;5029479;28;20037;-73
2022/01/11 03:24:47;;;;;;;54.22;27.02;;;;;;;-0.75;97.54;103091.47;5025194;28;20116;-73
2022/01/11 03:27:13;;;;;;;51.85;26.25;;;;;;;-0.76;97.46;103079.31;5027440;28;20051;-72
2022/01/11 03:29:39;;;;;;;58.63;27.10;;;;;;;-0.74;97.21;103085.41;5030215;28;20029;-73
2022/01/11 03:32:06;;;;;;;49.70;24.27;;;;;;;-0.76;97.00;103082.78;5025479;28;20482;-73
2022/01/11 03:34:31;;;;;;;53.50;28.02;;;;;;;-0.76;96.91;103080.19;5022417;28;20067;-72
2022/01/11 03:36:58;;;;;;;49.03;26.33;;;;;;;-0.78;96.62;103074.09;5028138;28;20041;-72
2022/01/11 03:39:24;;;;;;;53.60;26.05;;;;;;;-0.79;96.86;103072.31;5030062;28;20025;-73
2022/01/11 03:41:49;;;;;;;47.72;25.88;;;;;;;-0.82;96.96;103081.88;5029872;28;20033;-73
2022/01/11 03:44:14;;;;;;;50.67;26.88;;;;;;;-0.82;96.97;103074.91;5030182;28;20032;-72
2022/01/11 03:46:40;;;;;;;53.47;28.35;;;;;;;-0.80;96.69;103075.81;5020616;28;20499;-76
2022/01/11 03:49:05;;;;;;;53.60;25.52;;;;;;;-0.83;96.78;103067.09;5030102;28;20120;-72
2022/01/11 03:51:35;;;;;;;54.78;27.63;;;;;;;-0.82;97.00;103071.44;5022422;28;20058;-73
2022/01/11 03:54:08;;;;;;;52.65;25.77;;;;;;;-0.85;96.96;103071.41;5028926;28;20030;-73
2022/01/11 03:56:34;;;;;;;50.50;24.40;;;;;;;-0.86;97.17;103074.91;5021573;28;20025;-73
2022/01/11 03:59:01;;;;;;;51.33;25.50;;;;;;;-0.91;96.79;103072.25;5029842;28;20478;-72
2022/01/11 04:01:27;;;;;;;53.28;25.98;;;;;;;-0.90;97.20;103071.38;5029961;28;20025;-74
2022/01/11 04:03:52;;;;;;;53.97;26.45;;;;;;;-0.89;96.88;103075.75;5029104;28;20040;-72
2022/01/11 04:06:17;;;;;;;49.85;26.02;;;;;;;-0.88;96.92;103074.88;5029948;28;20036;-72
2022/01/11 04:08:44;;;;;;;54.28;27.50;;;;;;;-0.90;96.94;103083.56;5028465;28;20055;-73
2022/01/11 04:11:11;;;;;;;51.70;26.75;;;;;;;-0.92;96.86;103086.16;5023002;28;20034;-72
2022/01/11 04:13:37;;;;;;;46.92;25.42;;;;;;;-0.94;97.03;103086.13;5031006;28;20395;-73
2022/01/11 04:16:02;;;;;;;48.00;25.30;;;;;;;-0.95;96.84;103091.34;5032070;28;20022;-73
2022/01/11 04:18:27;;;;;;;47.78;25.48;;;;;;;-0.94;97.02;103099.19;5021537;28;20029;-73
2022/01/11 04:20:53;;;;;;;47.10;25.40;;;;;;;-0.94;96.82;103091.34;5033273;28;20533;-73
2022/01/11 04:23:18;;;;;;;49.78;25.08;;;;;;;-0.96;96.62;103095.69;5019305;28;20032;-74
2022/01/11 04:25:43;;;;;;;46.58;25.25;;;;;;;-0.97;96.69;103093.94;5021508;28;20117;-73
2022/01/11 04:28:09;;;;;;;45.28;24.45;;;;;;;-0.99;96.77;103087.84;5031241;28;20029;-73
2022/01/11 04:30:35;;;;;;;47.20;24.05;;;;;;;-1.01;96.70;103086.97;5031339;28;20060;-73
2022/01/11 04:33:00;;;;;;;44.35;25.20;;;;;;;-1.02;96.76;103092.16;5028680;28;20028;-71
2022/01/11 04:35:26;;;;;;;45.90;25.38;;;;;;;-1.03;96.70;103096.50;5031812;28;20234;-72
2022/01/11 04:37:51;;;;;;;44.65;25.38;;;;;;;-1.03;96.96;103103.44;5027548;28;20113;-72
2022/01/11 04:40:16;;;;;;;45.95;24.85;;;;;;;-1.03;96.90;103106.94;5029486;28;20069;-72
2022/01/11 04:42:42;;;;;;;43.67;25.10;;;;;;;-1.04;96.54;103109.53;5032723;28;20487;-72
2022/01/11 04:45:10;;;;;;;46.90;25.35;;;;;;;-1.04;96.51;103107.78;5032827;28;20025;-72
2022/01/11 04:47:35;;;;;;;41.42;24.40;;;;;;;-1.05;96.50;103111.28;5032750;28;20033;-73
2022/01/11 04:50:02;;;;;;;39.00;22.33;;;;;;;-1.08;96.26;103111.25;5029493;28;20073;-71
2022/01/11 04:52:27;;;;;;;41.22;24.10;;;;;;;-1.09;96.50;103106.03;5026484;28;20566;-72
2022/01/11 04:54:52;;;;;;;43.95;24.20;;;;;;;-1.11;96.14;103111.22;5024943;28;20022;-72
2022/01/11 04:57:18;;;;;;;43.05;24.77;;;;;;;-1.14;96.73;103104.22;5031338;28;20484;-73
2022/01/11 04:59:43;;;;;;;44.88;24.92;;;;;;;-1.15;96.47;103097.28;5027975;28;20033;-72
2022/01/11 05:02:09;;;;;;;47.63;25.42;;;;;;;-1.14;96.76;103090.31;5027487;28;20056;-73
2022/01/11 05:04:34;;;;;;;44.80;24.67;;;;;;;-1.18;96.52;103089.44;5025340;28;20092;-73
2022/01/11 05:06:59;;;;;;;44.83;25.23;;;;;;;-1.18;96.48;103089.44;5024767;28;20025;-73
2022/01/11 05:09:24;;;;;;;42.47;23.73;;;;;;;-1.18;96.71;103093.78;5024530;28;20025;-73
2022/01/11 05:11:50;;;;;;;44.15;26.08;;;;;;;-1.19;96.42;103090.28;5029643;28;20017;-74
2022/01/11 05:14:15;;;;;;;43.03;24.58;;;;;;;-1.18;96.48;103096.41;5028149;28;20514;-73
2022/01/11 05:16:41;;;;;;;48.58;25.90;;;;;;;-1.23;96.66;103093.75;5030690;28;20033;-74
2022/01/11 05:19:12;;;;;;;47.85;26.15;;;;;;;-1.25;96.77;103089.34;5023439;28;20033;-73
2022/01/11 05:21:37;;;;;;;48.17;25.85;;;;;;;-1.26;96.79;103096.31;5032496;28;20099;-73
2022/01/11 05:24:03;;;;;;;49.75;26.05;;;;;;;-1.27;96.69;103091.09;5032106;28;20471;-73
2022/01/11 05:26:28;;;;;;;48.47;26.33;;;;;;;-1.26;96.74;103090.22;5026918;28;20483;-73
2022/01/11 05:28:53;;;;;;;49.92;26.70;;;;;;;-1.27;96.41;103084.13;5031455;28;20029;-74
2022/01/11 05:31:18;;;;;;;50.22;26.70;;;;;;;-1.30;96.49;103073.66;5031856;28;20076;-73
2022/01/11 05:33:44;;;;;;;50.55;26.92;;;;;;;-1.31;96.58;103072.81;5028216;28;20398;-73
2022/01/11 05:36:09;;;;;;;46.90;26.35;;;;;;;-1.32;96.32;103085.81;5032010;28;20029;-73
2022/01/11 05:38:34;;;;;;;49.45;26.52;;;;;;;-1.34;96.49;103082.34;5031821;28;20060;-73
2022/01/11 05:40:59;;;;;;;49.28;26.48;;;;;;;-1.36;96.54;103084.91;5031900;28;20028;-72
2022/01/11 05:43:25;;;;;;;47.05;27.17;;;;;;;-1.37;96.42;103083.16;5027317;28;20041;-73
2022/01/11 05:45:50;;;;;;;56.28;27.70;;;;;;;-1.37;96.36;103090.97;5021200;28;20041;-73
2022/01/11 05:48:16;;;;;;;49.10;27.15;;;;;;;-1.37;96.25;103092.72;5031626;28;20476;-73
2022/01/11 05:50:43;;;;;;;51.25;27.55;;;;;;;-1.39;96.36;103099.66;5029115;28;20041;-73
2022/01/11 05:53:08;;;;;;;52.90;27.90;;;;;;;-1.39;96.46;103100.53;5031458;28;20048;-73
2022/01/11 05:55:34;;;;;;;53.55;27.35;;;;;;;-1.39;96.25;103095.31;5031439;28;20487;-72
2022/01/11 05:57:59;;;;;;;54.45;28.48;;;;;;;-1.39;96.34;103097.91;5031098;28;20022;-73
2022/01/11 06:00:24;;;;;;;53.55;26.90;;;;;;;-1.40;96.20;103103.13;5030704;28;20026;-73
2022/01/11 06:02:54;;;;;;;55.05;29.02;;;;;;;-1.40;96.20;103113.53;5031160;28;20053;-73
2022/01/11 06:05:19;;;;;;;50.55;27.63;;;;;;;-1.43;96.10;103117.00;5031395;28;20498;-73
2022/01/11 06:07:45;;;;;;;51.67;28.15;;;;;;;-1.42;95.69;103125.69;5024182;28;20034;-73
2022/01/11 06:10:11;;;;;;;54.38;26.88;;;;;;;-1.42;96.03;103125.69;5031060;28;20041;-73
2022/01/11 06:12:36;;;;;;;51.28;27.52;;;;;;;-1.42;95.84;103131.78;5031143;28;20025;-73
2022/01/11 06:15:02;;;;;;;53.30;27.65;;;;;;;-1.42;95.93;103137.00;5030097;28;20083;-73
2022/01/11 06:17:28;;;;;;;54.33;27.08;;;;;;;-1.44;95.90;103141.31;5026523;28;20060;-73
2022/01/11 06:19:53;;;;;;;46.78;25.27;;;;;;;-1.43;95.90;103139.56;5031070;28;20045;-73
2022/01/11 06:22:20;;;;;;;51.10;25.88;;;;;;;-1.41;95.83;103141.34;5029231;28;20464;-72
2022/01/11 06:24:46;;;;;;;48.78;25.75;;;;;;;-1.42;95.73;103150.03;5030490;28;20051;-72
2022/01/11 06:27:11;;;;;;;54.10;26.98;;;;;;;-1.41;95.94;103153.53;5029756;28;20021;-73
2022/01/11 06:29:36;;;;;;;52.03;26.77;;;;;;;-1.43;95.63;103158.72;5027841;28;20471;-72
2022/01/11 06:32:02;;;;;;;49.10;26.52;;;;;;;-1.43;95.43;103153.50;5030973;28;20033;-73
2022/01/11 06:34:27;;;;;;;46.45;25.52;;;;;;;-1.45;95.55;103146.50;5030735;28;20514;-72
2022/01/11 06:36:52;;;;;;;48.45;25.30;;;;;;;-1.45;95.51;103152.59;5029051;28;20499;-73
2022/01/11 06:39:18;;;;;;;44.95;25.42;;;;;;;-1.46;95.55;103153.47;5023734;28;20033;-72
2022/01/11 06:41:43;;;;;;;45.90;25.25;;;;;;;-1.47;95.47;103159.53;5030530;28;20018;-72
2022/01/11 06:44:10;;;;;;;45.42;25.05;;;;;;;-1.50;95.60;103155.19;5026166;28;20048;-72
2022/01/11 06:46:36;;;;;;;47.28;25.25;;;;;;;-1.49;95.38;103163.84;5025159;28;20018;-73
2022/01/11 06:49:01;;;;;;;45.45;25.67;;;;;;;-1.51;95.48;103171.66;5030580;28;20159;-72
2022/01/11 06:51:27;;;;;;;46.35;26.38;;;;;;;-1.53;95.59;103165.56;5027371;28;20058;-72
2022/01/11 06:53:52;;;;;;;47.40;25.15;;;;;;;-1.56;95.71;103169.88;5026855;28;20108;-72
2022/01/11 06:56:20;;;;;;;49.45;24.60;;;;;;;-1.57;95.55;103174.19;5030832;28;20518;-73
2022/01/11 06:58:45;;;;;;;44.47;24.65;;;;;;;-1.58;95.33;103164.63;5030444;28;20026;-72
2022/01/11 07:01:10;;;;;;;44.08;24.85;;;;;;;-1.58;95.59;103166.34;5024353;28;20037;-73
2022/01/11 07:03:36;;;;;;;43.75;24.00;;;;;;;-1.61;95.41;103167.19;5030503;28;20542;-73
2022/01/11 07:06:01;;;;;;;45.40;25.52;;;;;;;-1.60;95.65;103162.84;5030390;28;20036;-73
2022/01/11 07:08:27;;;;;;;44.47;24.02;;;;;;;-1.61;95.59;103174.16;5021380;28;20033;-72
2022/01/11 07:10:52;;;;;;;44.13;25.17;;;;;;;-1.62;95.35;103173.25;5029430;28;20051;-71
2022/01/11 07:13:18;;;;;;;42.08;25.25;;;;;;;-1.61;95.36;103176.75;5030138;28;20034;-71
2022/01/11 07:15:43;;;;;;;43.08;24.67;;;;;;;-1.63;95.18;103183.66;5028202;28;20033;-70
2022/01/11 07:18:10;;;;;;;39.42;22.17;;;;;;;-1.63;95.35;103187.16;5024735;28;20110;-72
2022/01/11 07:20:37;;;;;;;44.88;25.10;;;;;;;-1.62;95.34;103188.03;5029576;28;20482;-72
2022/01/11 07:23:03;;;;;;;44.40;25.95;;;;;;;-1.64;95.33;103197.56;5024886;28;20037;-72
2022/01/11 07:25:30;;;;;;;42.97;23.58;;;;;;;-1.65;95.38;103191.44;5026323;28;20029;-72
2022/01/11 07:27:56;;;;;;;45.05;24.05;;;;;;;-1.65;95.40;103193.19;5018128;28;20136;-72
2022/01/11 07:30:21;;;;;;;43.17;23.70;;;;;;;-1.66;95.47;103194.94;5013753;28;20109;-74
2022/01/11 07:32:47;;;;;;;40.95;24.38;;;;;;;-1.66;95.18;103205.34;5020555;28;20044;-73
2022/01/11 07:35:12;;;;;;;41.05;23.10;;;;;;;-1.67;95.42;103208.81;5039131;28;20071;-72
2022/01/11 07:37:37;;;;;;;43.35;24.02;;;;;;;-1.68;95.38;103210.56;5021137;28;20044;-72
2022/01/11 07:40:03;;;;;;;43.70;23.85;;;;;;;-1.69;95.21;103215.75;5017342;28;20049;-72
2022/01/11 07:42:29;;;;;;;45.92;25.13;;;;;;;-1.69;95.16;103206.19;5012078;28;20121;-72
2022/01/11 07:44:54;;;;;;;44.17;24.35;;;;;;;-1.71;95.34;103213.09;5018264;28;20113;-72
2022/01/11 07:47:20;;;;;;;45.85;24.33;;;;;;;-1.69;95.49;103220.94;5010897;28;20034;-71
2022/01/11 07:49:47;;;;;;;41.17;22.60;;;;;;;-1.71;95.24;103218.31;5013435;28;20075;-71
2022/01/11 07:52:13;;;;;;;39.13;23.33;;;;;;;-1.70;95.44;103219.19;5014347;28;20048;-72
2022/01/11 07:54:38;;;;;;;39.50;23.27;;;;;;;-1.69;95.26;103218.34;5012716;28;20030;-72
2022/01/11 07:57:04;;;;;;;39.42;23.13;;;;;;;-1.68;95.18;103220.09;5019679;28;20049;-71
2022/01/11 07:59:29;;;;;;;42.97;23.63;;;;;;;-1.67;95.06;103214.03;5020488;28;20026;-72
2022/01/11 08:01:54;;;;;;;46.15;24.40;;;;;;;-1.66;95.35;103226.19;5016106;28;20316;-71
2022/01/11 08:04:19;;;;;;;41.05;23.00;;;;;;;-1.70;95.08;103217.47;5018521;28;20025;-71
2022/01/11 08:06:45;;;;;;;36.78;22.02;;;;;;;-1.64;95.05;103221.00;5026446;28;20037;-72
2022/01/11 08:09:10;;;;;;;40.28;23.17;;;;;;;-1.64;95.14;103224.50;5032898;28;20028;-72
2022/01/11 08:11:35;;;;;;;40.47;23.35;;;;;;;-1.64;95.09;103219.28;5032978;28;20053;-71
2022/01/11 08:14:01;;;;;;;40.60;22.48;;;;;;;-1.62;95.16;103216.69;5016593;28;21078;-71
2022/01/11 08:16:26;;;;;;;38.90;22.27;;;;;;;-1.60;95.06;103221.09;5013185;28;20091;-71
2022/01/11 08:18:51;;;;;;;41.38;23.10;;;;;;;-1.59;95.26;103219.34;5016515;28;20472;-72
2022/01/11 08:21:16;;;;;;;38.53;21.58;;;;;;;-1.57;95.11;103223.69;5025579;28;20033;-72
2022/01/11 08:23:42;;;;;;;38.33;22.48;;;;;;;-1.54;95.13;103228.09;5017564;28;20041;-71
2022/01/11 08:26:07;;;;;;;36.30;22.00;;;;;;;-1.49;95.18;103223.81;5023240;28;20052;-71
2022/01/11 08:28:32;;;;;;;40.30;22.83;;;;;;;-1.45;95.25;103227.31;5019268;28;20033;-71
2022/01/11 08:30:58;;;;;;;39.28;21.58;;;;;;;-1.43;95.44;103226.50;5030252;28;20387;-71
2022/01/11 08:33:24;;;;;;;36.85;20.70;;;;;;;-1.38;95.26;103227.41;5031896;28;20041;-71
2022/01/11 08:35:51;;;;;;;39.85;22.77;;;;;;;-1.31;95.09;103234.44;5020820;28;20069;-73
2022/01/11 08:38:16;;;;;;;38.05;21.80;;;;;;;-1.25;94.97;103230.16;5025247;28;20083;-72
2022/01/11 08:40:42;;;;;;;37.90;21.92;;;;;;;-1.21;95.02;103229.34;5016953;28;20070;-71
2022/01/11 08:43:08;;;;;;;38.92;21.52;;;;;;;-1.16;95.03;103228.53;5014768;28;20025;-69
2022/01/11 08:45:34;;;;;;;38.08;22.20;;;;;;;-1.12;94.83;103234.63;5020470;28;20037;-69
2022/01/11 08:48:00;;;;;;;34.20;20.77;;;;;;;-1.07;94.95;103225.13;5021225;28;20030;-69
2022/01/11 08:50:26;;;;;;;34.83;21.05;;;;;;;-1.00;95.18;103226.97;5018501;28;20395;-70
2022/01/11 08:52:51;;;;;;;36.70;21.88;;;;;;;-0.95;95.18;103229.59;5034025;28;20021;-69
2022/01/11 08:55:17;;;;;;;36.42;21.05;;;;;;;-0.88;95.20;103227.91;5030352;28;20049;-72
2022/01/11 08:57:44;;;;;;;37.25;21.33;;;;;;;-0.82;95.18;103231.47;5034863;28;20033;-71
2022/01/11 09:00:16;;;;;;;33.78;20.00;;;;;;;-0.77;95.10;103234.13;5019035;28;20034;-70
2022/01/11 09:02:46;;;;;;;38.42;21.83;;;;;;;-0.71;94.94;103236.81;5015141;28;20026;-70
2022/01/11 09:05:12;;;;;;;34.42;20.42;;;;;;;-0.63;94.59;103245.56;5024515;28;20036;-72
2022/01/11 09:07:37;;;;;;;32.78;19.90;;;;;;;-0.57;94.65;103255.19;4997208;28;20034;-70
2022/01/11 09:10:03;;;;;;;35.30;20.25;;;;;;;-0.50;94.41;103251.78;5032351;28;20030;-70
2022/01/11 09:12:29;;;;;;;33.58;19.75;;;;;;;-0.46;94.17;103253.53;5034948;28;20116;-69
2022/01/11 09:14:54;;;;;;;35.97;18.75;;;;;;;-0.41;94.43;103244.00;5028018;28;20117;-69
2022/01/11 09:17:19;;;;;;;32.38;19.13;;;;;;;-0.32;94.09;103242.34;5031159;28;20368;-69
2022/01/11 09:19:45;;;;;;;34.08;20.10;;;;;;;-0.25;93.93;103241.50;5032791;28;20031;-69
2022/01/11 09:22:10;;;;;;;33.35;20.05;;;;;;;-0.20;93.73;103243.31;5029987;28;20104;-70
2022/01/11 09:24:36;;;;;;;30.98;19.58;;;;;;;-0.11;94.44;103246.84;5031856;28;20034;-70
2022/01/11 09:27:04;;;;;;;35.30;20.17;;;;;;;-0.06;93.49;103250.38;5027459;28;20025;-70
2022/01/11 09:29:32;;;;;;;30.95;17.92;;;;;;;0.02;93.05;103248.69;5029463;28;20482;-69
2022/01/11 09:31:59;;;;;;;29.70;19.25;;;;;;;0.12;92.83;103250.47;5036143;28;20089;-69
2022/01/11 09:34:25;;;;;;;32.88;19.33;;;;;;;0.21;92.71;103247.03;5022659;28;20026;-69
2022/01/11 09:36:50;;;;;;;29.95;18.65;;;;;;;0.29;92.67;103250.56;5020203;28;20063;-68
2022/01/11 09:39:16;;;;;;;31.10;18.48;;;;;;;0.36;92.59;103254.06;5020964;28;20021;-69
2022/01/11 09:41:41;;;;;;;31.52;18.98;;;;;;;0.43;92.01;103250.63;5019883;28;20030;-68
2022/01/11 09:44:07;;;;;;;29.60;18.20;;;;;;;0.53;91.69;103256.75;5022613;28;20030;-68
2022/01/11 09:46:33;;;;;;;29.27;17.90;;;;;;;0.61;91.70;103255.06;5022622;28;20468;-70
2022/01/11 09:49:00;;;;;;;30.20;17.70;;;;;;;0.69;91.08;103266.44;5024368;28;20040;-69
2022/01/11 09:51:25;;;;;;;28.38;18.10;;;;;;;0.74;90.54;103264.69;5035319;28;20065;-69
2022/01/11 09:53:51;;;;;;;29.33;17.98;;;;;;;0.79;90.45;103269.94;5023092;28;20065;-69
2022/01/11 09:56:17;;;;;;;29.90;17.83;;;;;;;0.83;89.80;103271.69;5021181;28;20040;-70
2022/01/11 09:58:44;;;;;;;30.77;17.50;;;;;;;0.85;89.58;103272.59;5028063;28;20049;-69
2022/01/11 10:01:09;;;;;;;25.85;15.82;;;;;;;0.85;89.24;103275.22;5037460;28;20033;-69
2022/01/11 10:04:04;;;;;;;26.05;17.17;;;;;;;0.92;89.41;103268.25;5040206;28;20055;-69
2022/01/11 10:06:31;;;;;;;25.77;16.35;;;;;;;0.98;89.54;103280.47;5039148;28;20033;-71
2022/01/11 10:09:07;;;;;;;25.92;16.70;;;;;;;1.03;88.78;103270.88;5033704;28;20074;-69
2022/01/11 10:11:34;;;;;;;25.55;15.30;;;;;;;1.09;89.15;103270.91;5046199;28;20029;-70
2022/01/11 10:14:16;;;;;;;23.35;15.38;;;;;;;1.12;88.43;103265.69;5036095;28;20029;-70
2022/01/11 10:16:42;;;;;;;26.55;16.25;;;;;;;1.15;88.54;103270.94;5018584;28;20109;-70
2022/01/11 10:19:20;;;;;;;27.30;16.40;;;;;;;1.17;88.47;103271.81;5021706;28;20486;-70
2022/01/11 10:21:47;;;;;;;27.27;15.98;;;;;;;1.20;88.03;103268.28;5017108;28;20025;-74
2022/01/11 10:24:32;;;;;;;25.65;15.93;;;;;;;1.23;87.92;103270.94;5029152;28;20036;-74
2022/01/11 10:27:00;;;;;;;26.35;14.38;;;;;;;1.27;87.53;103276.19;5031277;28;20048;-74
2022/01/11 10:29:53;;;;;;;22.27;15.02;;;;;;;1.32;87.47;103275.31;5022902;28;20305;-74
2022/01/11 10:32:22;;;;;;;28.40;16.63;;;;;;;1.35;88.29;103264.81;5027649;28;20029;-74
2022/01/11 10:34:51;;;;;;;25.48;15.10;;;;;;;1.39;88.03;103274.44;5029336;28;20044;-74
2022/01/11 10:37:28;;;;;;;25.27;16.42;;;;;;;1.43;87.36;103270.94;5024582;28;20045;-74
2022/01/11 10:40:02;;;;;;;23.65;14.57;;;;;;;1.46;88.19;103278.81;5029185;28;20041;-74
2022/01/11 10:42:33;;;;;;;22.48;14.38;;;;;;;1.50;87.11;103280.59;5024542;28;20028;-74
2022/01/11 10:45:08;;;;;;;25.42;15.38;;;;;;;1.55;87.76;103270.06;5025485;28;20033;-74
2022/01/11 10:47:39;;;;;;;23.70;14.82;;;;;;;1.56;86.62;103261.38;5029148;28;20064;-74
2022/01/11 10:50:10;;;;;;;23.52;14.43;;;;;;;1.62;87.07;103272.72;5027345;28;20503;-75
2022/01/11 10:52:35;;;;;;;23.83;15.02;;;;;;;1.67;87.35;103275.34;5026166;28;20518;-75
2022/01/11 10:55:06;;;;;;;25.08;14.98;;;;;;;1.70;87.45;103280.59;5028715;28;20017;-74
2022/01/11 10:57:40;;;;;;;24.08;14.10;;;;;;;1.77;86.61;103278.84;5023541;28;20447;-74
2022/01/11 11:00:17;;;;;;;21.13;14.65;;;;;;;1.82;86.85;103277.94;5029185;28;20084;-74
2022/01/11 11:02:45;;;;;;;24.33;14.35;;;;;;;1.87;86.43;103277.09;5028844;28;20018;-74
2022/01/11 11:05:18;;;;;;;23.47;13.37;;;;;;;1.92;86.59;103278.81;5023294;28;20034;-74
2022/01/11 11:07:52;;;;;;;24.60;13.73;;;;;;;1.96;86.35;103274.44;5028847;28;20029;-74
2022/01/11 11:10:27;;;;;;;21.17;12.90;;;;;;;2.00;85.75;103274.44;5028612;28;20032;-74
2022/01/11 11:12:56;;;;;;;22.42;14.27;;;;;;;2.03;85.74;103274.44;5027475;28;20092;-74